sensor_id;sensor_type;location;lat;lon;timestamp;P1;durP1;ratioP1;P2;durP2;ratioP2
2035;SDS011;23642;42.658;23.350;2023-02-18T00:02:07;109.83;;;101.47;;
2035;SDS011;23642;42.658;23.350;2023-02-18T00:04:33;107.73;;;99.63;;
2035;SDS011;23642;42.658;23.350;2023-02-18T00:07:00;112.10;;;102.30;;
2035;SDS011;23642;42.658;23.350;2023-02-18T00:09:27;111.50;;;103.07;;
2035;SDS011;23642;42.658;23.350;2023-02-18T00:11:55;109.03;;;99.17;;
2035;SDS011;23642;42.658;23.350;2023-02-18T00:14:22;109.50;;;100.40;;
2035;SDS011;23642;42.658;23.350;2023-02-18T00:16:49;111.97;;;103.50;;
2035;SDS011;23642;42.658;23.350;2023-02-18T00:19:16;108.60;;;100.70;;
2035;SDS011;23642;42.658;23.350;2023-02-18T00:21:44;109.67;;;101.10;;
2035;SDS011;23642;42.658;23.350;2023-02-18T00:24:12;108.43;;;100.17;;
2035;SDS011;23642;42.658;23.350;2023-02-18T00:26:40;107.43;;;99.53;;
2035;SDS011;23642;42.658;23.350;2023-02-18T00:29:09;106.93;;;99.33;;
2035;SDS011;23642;42.658;23.350;2023-02-18T00:31:36;108.13;;;100.07;;
2035;SDS011;23642;42.658;23.350;2023-02-18T00:34:04;110.03;;;101.43;;
2035;SDS011;23642;42.658;23.350;2023-02-18T00:36:31;107.87;;;99.93;;
2035;SDS011;23642;42.658;23.350;2023-02-18T00:39:00;108.93;;;100.83;;
2035;SDS011;23642;42.658;23.350;2023-02-18T00:41:29;109.13;;;101.20;;
2035;SDS011;23642;42.658;23.350;2023-02-18T00:43:56;107.70;;;99.77;;
2035;SDS011;23642;42.658;23.350;2023-02-18T00:46:25;108.50;;;100.50;;
2035;SDS011;23642;42.658;23.350;2023-02-18T00:48:52;107.60;;;99.60;;
2035;SDS011;23642;42.658;23.350;2023-02-18T00:51:19;107.38;;;99.72;;
2035;SDS011;23642;42.658;23.350;2023-02-18T00:53:47;107.80;;;99.80;;
2035;SDS011;23642;42.658;23.350;2023-02-18T00:56:14;106.70;;;98.87;;
2035;SDS011;23642;42.658;23.350;2023-02-18T00:58:40;108.87;;;100.60;;
2035;SDS011;23642;42.658;23.350;2023-02-18T01:01:07;108.40;;;99.53;;
2035;SDS011;23642;42.658;23.350;2023-02-18T01:03:38;106.80;;;99.07;;
2035;SDS011;23642;42.658;23.350;2023-02-18T01:06:06;107.03;;;99.23;;
2035;SDS011;23642;42.658;23.350;2023-02-18T01:08:34;108.90;;;100.20;;
2035;SDS011;23642;42.658;23.350;2023-02-18T01:11:01;108.65;;;100.47;;
2035;SDS011;23642;42.658;23.350;2023-02-18T01:13:29;107.67;;;100.07;;
2035;SDS011;23642;42.658;23.350;2023-02-18T01:15:56;106.47;;;98.40;;
2035;SDS011;23642;42.658;23.350;2023-02-18T01:18:23;109.70;;;101.43;;
2035;SDS011;23642;42.658;23.350;2023-02-18T01:20:52;106.10;;;98.30;;
2035;SDS011;23642;42.658;23.350;2023-02-18T01:23:19;106.27;;;98.60;;
2035;SDS011;23642;42.658;23.350;2023-02-18T01:25:48;104.55;;;97.07;;
2035;SDS011;23642;42.658;23.350;2023-02-18T01:28:15;105.70;;;97.90;;
2035;SDS011;23642;42.658;23.350;2023-02-18T01:30:43;105.85;;;98.18;;
2035;SDS011;23642;42.658;23.350;2023-02-18T01:33:10;106.03;;;98.07;;
2035;SDS011;23642;42.658;23.350;2023-02-18T01:35:37;106.88;;;98.47;;
2035;SDS011;23642;42.658;23.350;2023-02-18T01:38:06;109.33;;;100.53;;
2035;SDS011;23642;42.658;23.350;2023-02-18T01:40:33;109.10;;;101.20;;
2035;SDS011;23642;42.658;23.350;2023-02-18T01:43:00;105.25;;;97.72;;
2035;SDS011;23642;42.658;23.350;2023-02-18T01:45:44;106.93;;;99.10;;
2035;SDS011;23642;42.658;23.350;2023-02-18T01:48:17;105.93;;;98.00;;
2035;SDS011;23642;42.658;23.350;2023-02-18T01:50:48;104.60;;;97.00;;
2035;SDS011;23642;42.658;23.350;2023-02-18T01:53:21;104.90;;;96.90;;
2035;SDS011;23642;42.658;23.350;2023-02-18T01:55:58;105.60;;;98.33;;
2035;SDS011;23642;42.658;23.350;2023-02-18T01:58:28;112.07;;;103.87;;
2035;SDS011;23642;42.658;23.350;2023-02-18T02:00:55;106.80;;;98.30;;
2035;SDS011;23642;42.658;23.350;2023-02-18T02:03:21;105.90;;;97.30;;
2035;SDS011;23642;42.658;23.350;2023-02-18T02:05:48;103.53;;;96.13;;
2035;SDS011;23642;42.658;23.350;2023-02-18T02:08:15;105.37;;;98.07;;
2035;SDS011;23642;42.658;23.350;2023-02-18T02:10:48;107.70;;;98.73;;
2035;SDS011;23642;42.658;23.350;2023-02-18T02:13:26;109.37;;;100.50;;
2035;SDS011;23642;42.658;23.350;2023-02-18T02:16:05;106.10;;;98.20;;
2035;SDS011;23642;42.658;23.350;2023-02-18T02:18:42;107.22;;;99.22;;
2035;SDS011;23642;42.658;23.350;2023-02-18T02:27:30;107.43;;;99.47;;
2035;SDS011;23642;42.658;23.350;2023-02-18T02:36:28;109.03;;;100.60;;
2035;SDS011;23642;42.658;23.350;2023-02-18T02:39:03;106.47;;;99.07;;
2035;SDS011;23642;42.658;23.350;2023-02-18T02:41:42;105.88;;;98.07;;
2035;SDS011;23642;42.658;23.350;2023-02-18T02:44:18;107.30;;;99.95;;
2035;SDS011;23642;42.658;23.350;2023-02-18T02:46:47;109.47;;;101.63;;
2035;SDS011;23642;42.658;23.350;2023-02-18T02:49:22;105.80;;;98.05;;
2035;SDS011;23642;42.658;23.350;2023-02-18T02:51:58;105.22;;;97.72;;
2035;SDS011;23642;42.658;23.350;2023-02-18T02:54:29;107.77;;;99.67;;
2035;SDS011;23642;42.658;23.350;2023-02-18T02:57:06;106.40;;;98.68;;
2035;SDS011;23642;42.658;23.350;2023-02-18T02:59:54;108.00;;;100.07;;
2035;SDS011;23642;42.658;23.350;2023-02-18T03:02:27;106.87;;;99.10;;
2035;SDS011;23642;42.658;23.350;2023-02-18T03:05:06;108.85;;;100.93;;
2035;SDS011;23642;42.658;23.350;2023-02-18T03:07:50;106.30;;;98.40;;
2035;SDS011;23642;42.658;23.350;2023-02-18T03:10:28;108.43;;;99.50;;
2035;SDS011;23642;42.658;23.350;2023-02-18T03:13:13;107.82;;;99.38;;
2035;SDS011;23642;42.658;23.350;2023-02-18T03:15:48;106.78;;;98.72;;
2035;SDS011;23642;42.658;23.350;2023-02-18T03:18:21;107.27;;;99.57;;
2035;SDS011;23642;42.658;23.350;2023-02-18T03:20:52;108.23;;;100.53;;
2035;SDS011;23642;42.658;23.350;2023-02-18T03:23:24;109.20;;;101.70;;
2035;SDS011;23642;42.658;23.350;2023-02-18T03:25:54;110.45;;;102.40;;
2035;SDS011;23642;42.658;23.350;2023-02-18T03:28:23;108.30;;;100.67;;
2035;SDS011;23642;42.658;23.350;2023-02-18T03:30:58;104.97;;;97.50;;
2035;SDS011;23642;42.658;23.350;2023-02-18T03:33:29;107.73;;;99.83;;
2035;SDS011;23642;42.658;23.350;2023-02-18T03:36:00;109.88;;;101.32;;
2035;SDS011;23642;42.658;23.350;2023-02-18T03:38:31;110.90;;;102.37;;
2035;SDS011;23642;42.658;23.350;2023-02-18T03:41:01;111.57;;;102.93;;
2035;SDS011;23642;42.658;23.350;2023-02-18T03:43:29;109.73;;;102.10;;
2035;SDS011;23642;42.658;23.350;2023-02-18T03:45:56;112.72;;;103.25;;
2035;SDS011;23642;42.658;23.350;2023-02-18T03:48:23;108.18;;;99.60;;
2035;SDS011;23642;42.658;23.350;2023-02-18T03:50:49;110.78;;;102.57;;
2035;SDS011;23642;42.658;23.350;2023-02-18T03:53:16;111.53;;;103.63;;
2035;SDS011;23642;42.658;23.350;2023-02-18T03:55:44;109.93;;;101.23;;
2035;SDS011;23642;42.658;23.350;2023-02-18T03:58:11;111.15;;;102.43;;
2035;SDS011;23642;42.658;23.350;2023-02-18T04:00:38;108.72;;;100.00;;
2035;SDS011;23642;42.658;23.350;2023-02-18T04:03:04;106.35;;;98.85;;
2035;SDS011;23642;42.658;23.350;2023-02-18T04:05:31;109.97;;;102.13;;
2035;SDS011;23642;42.658;23.350;2023-02-18T04:07:58;108.68;;;100.32;;
2035;SDS011;23642;42.658;23.350;2023-02-18T04:10:24;110.50;;;100.88;;
2035;SDS011;23642;42.658;23.350;2023-02-18T04:12:52;107.78;;;99.72;;
2035;SDS011;23642;42.658;23.350;2023-02-18T04:15:19;107.05;;;99.07;;
2035;SDS011;23642;42.658;23.350;2023-02-18T04:17:46;108.70;;;100.40;;
2035;SDS011;23642;42.658;23.350;2023-02-18T04:20:12;109.90;;;101.63;;
2035;SDS011;23642;42.658;23.350;2023-02-18T04:22:40;119.18;;;109.07;;
2035;SDS011;23642;42.658;23.350;2023-02-18T04:25:07;116.93;;;108.32;;
2035;SDS011;23642;42.658;23.350;2023-02-18T04:27:34;115.32;;;106.90;;
2035;SDS011;23642;42.658;23.350;2023-02-18T04:30:02;118.57;;;109.47;;
2035;SDS011;23642;42.658;23.350;2023-02-18T04:32:30;112.82;;;104.65;;
2035;SDS011;23642;42.658;23.350;2023-02-18T04:34:56;118.25;;;109.18;;
2035;SDS011;23642;42.658;23.350;2023-02-18T04:37:23;108.97;;;101.28;;
2035;SDS011;23642;42.658;23.350;2023-02-18T04:39:50;109.30;;;101.38;;
2035;SDS011;23642;42.658;23.350;2023-02-18T04:42:17;107.68;;;99.32;;
2035;SDS011;23642;42.658;23.350;2023-02-18T04:44:43;110.32;;;102.22;;
2035;SDS011;23642;42.658;23.350;2023-02-18T04:47:11;109.65;;;101.90;;
2035;SDS011;23642;42.658;23.350;2023-02-18T04:49:38;107.15;;;99.50;;
2035;SDS011;23642;42.658;23.350;2023-02-18T04:52:05;110.25;;;102.45;;
2035;SDS011;23642;42.658;23.350;2023-02-18T04:54:32;111.38;;;103.78;;
2035;SDS011;23642;42.658;23.350;2023-02-18T04:56:58;104.45;;;96.97;;
2035;SDS011;23642;42.658;23.350;2023-02-18T04:59:25;108.75;;;101.13;;
2035;SDS011;23642;42.658;23.350;2023-02-18T05:01:52;107.17;;;99.77;;
2035;SDS011;23642;42.658;23.350;2023-02-18T05:04:20;107.93;;;100.15;;
2035;SDS011;23642;42.658;23.350;2023-02-18T05:06:47;107.40;;;100.15;;
2035;SDS011;23642;42.658;23.350;2023-02-18T05:09:14;114.82;;;106.20;;
2035;SDS011;23642;42.658;23.350;2023-02-18T05:11:41;112.07;;;103.88;;
2035;SDS011;23642;42.658;23.350;2023-02-18T05:14:08;112.13;;;103.57;;
2035;SDS011;23642;42.658;23.350;2023-02-18T05:16:34;113.60;;;105.65;;
2035;SDS011;23642;42.658;23.350;2023-02-18T05:19:01;115.43;;;107.43;;
2035;SDS011;23642;42.658;23.350;2023-02-18T05:21:29;109.30;;;101.50;;
2035;SDS011;23642;42.658;23.350;2023-02-18T05:23:56;109.83;;;102.33;;
2035;SDS011;23642;42.658;23.350;2023-02-18T05:26:23;112.28;;;104.30;;
2035;SDS011;23642;42.658;23.350;2023-02-18T05:28:50;115.40;;;107.60;;
2035;SDS011;23642;42.658;23.350;2023-02-18T05:31:17;111.57;;;103.70;;
2035;SDS011;23642;42.658;23.350;2023-02-18T05:33:43;112.43;;;104.20;;
2035;SDS011;23642;42.658;23.350;2023-02-18T05:36:10;113.83;;;104.43;;
2035;SDS011;23642;42.658;23.350;2023-02-18T05:38:38;114.30;;;104.47;;
2035;SDS011;23642;42.658;23.350;2023-02-18T05:41:05;115.37;;;106.27;;
2035;SDS011;23642;42.658;23.350;2023-02-18T05:43:32;113.40;;;104.83;;
2035;SDS011;23642;42.658;23.350;2023-02-18T05:46:19;111.80;;;103.10;;
2035;SDS011;23642;42.658;23.350;2023-02-18T05:48:46;114.00;;;106.03;;
2035;SDS011;23642;42.658;23.350;2023-02-18T05:51:13;112.23;;;104.17;;
2035;SDS011;23642;42.658;23.350;2023-02-18T05:53:41;116.30;;;107.43;;
2035;SDS011;23642;42.658;23.350;2023-02-18T05:56:08;113.93;;;105.93;;
2035;SDS011;23642;42.658;23.350;2023-02-18T05:58:34;113.68;;;105.32;;
2035;SDS011;23642;42.658;23.350;2023-02-18T06:01:01;114.83;;;106.43;;
2035;SDS011;23642;42.658;23.350;2023-02-18T06:03:28;116.40;;;108.00;;
2035;SDS011;23642;42.658;23.350;2023-02-18T06:05:55;115.37;;;106.73;;
2035;SDS011;23642;42.658;23.350;2023-02-18T06:08:22;118.90;;;109.67;;
2035;SDS011;23642;42.658;23.350;2023-02-18T06:10:50;115.50;;;107.20;;
2035;SDS011;23642;42.658;23.350;2023-02-18T06:13:16;115.63;;;107.23;;
2035;SDS011;23642;42.658;23.350;2023-02-18T06:15:43;117.27;;;108.70;;
2035;SDS011;23642;42.658;23.350;2023-02-18T06:18:10;116.40;;;107.90;;
2035;SDS011;23642;42.658;23.350;2023-02-18T06:20:37;118.50;;;109.80;;
2035;SDS011;23642;42.658;23.350;2023-02-18T06:23:04;119.50;;;110.63;;
2035;SDS011;23642;42.658;23.350;2023-02-18T06:25:31;118.10;;;109.37;;
2035;SDS011;23642;42.658;23.350;2023-02-18T06:27:59;122.80;;;112.87;;
2035;SDS011;23642;42.658;23.350;2023-02-18T06:30:25;120.77;;;111.27;;
2035;SDS011;23642;42.658;23.350;2023-02-18T06:32:52;121.17;;;112.17;;
2035;SDS011;23642;42.658;23.350;2023-02-18T06:35:19;122.20;;;112.30;;
2035;SDS011;23642;42.658;23.350;2023-02-18T06:37:46;120.23;;;111.63;;
2035;SDS011;23642;42.658;23.350;2023-02-18T06:40:12;122.07;;;112.07;;
2035;SDS011;23642;42.658;23.350;2023-02-18T06:42:39;127.33;;;117.37;;
2035;SDS011;23642;42.658;23.350;2023-02-18T06:45:07;137.00;;;126.70;;
2035;SDS011;23642;42.658;23.350;2023-02-18T06:47:34;144.80;;;131.80;;
2035;SDS011;23642;42.658;23.350;2023-02-18T06:50:01;143.97;;;130.77;;
2035;SDS011;23642;42.658;23.350;2023-02-18T06:52:29;142.17;;;127.77;;
2035;SDS011;23642;42.658;23.350;2023-02-18T06:54:57;131.53;;;120.97;;
2035;SDS011;23642;42.658;23.350;2023-02-18T06:57:24;129.30;;;119.70;;
2035;SDS011;23642;42.658;23.350;2023-02-18T06:59:51;133.57;;;123.40;;
2035;SDS011;23642;42.658;23.350;2023-02-18T07:02:21;126.90;;;117.10;;
2035;SDS011;23642;42.658;23.350;2023-02-18T07:04:48;125.47;;;115.80;;
2035;SDS011;23642;42.658;23.350;2023-02-18T07:07:15;125.33;;;115.70;;
2035;SDS011;23642;42.658;23.350;2023-02-18T07:09:41;123.70;;;114.63;;
2035;SDS011;23642;42.658;23.350;2023-02-18T07:12:08;123.07;;;114.60;;
2035;SDS011;23642;42.658;23.350;2023-02-18T07:14:35;123.40;;;114.20;;
2035;SDS011;23642;42.658;23.350;2023-02-18T07:17:02;128.43;;;115.40;;
2035;SDS011;23642;42.658;23.350;2023-02-18T07:19:30;125.23;;;115.60;;
2035;SDS011;23642;42.658;23.350;2023-02-18T07:21:56;123.97;;;115.13;;
2035;SDS011;23642;42.658;23.350;2023-02-18T07:24:23;126.47;;;117.00;;
2035;SDS011;23642;42.658;23.350;2023-02-18T07:26:50;126.47;;;117.33;;
2035;SDS011;23642;42.658;23.350;2023-02-18T07:29:17;127.37;;;117.07;;
2035;SDS011;23642;42.658;23.350;2023-02-18T07:31:43;128.57;;;119.37;;
2035;SDS011;23642;42.658;23.350;2023-02-18T07:34:10;128.10;;;117.60;;
2035;SDS011;23642;42.658;23.350;2023-02-18T07:36:41;123.30;;;114.40;;
2035;SDS011;23642;42.658;23.350;2023-02-18T07:39:08;127.27;;;117.93;;
2035;SDS011;23642;42.658;23.350;2023-02-18T07:41:34;125.57;;;115.93;;
2035;SDS011;23642;42.658;23.350;2023-02-18T07:44:01;125.63;;;116.50;;
2035;SDS011;23642;42.658;23.350;2023-02-18T07:46:28;125.30;;;115.80;;
2035;SDS011;23642;42.658;23.350;2023-02-18T07:48:55;129.47;;;119.80;;
2035;SDS011;23642;42.658;23.350;2023-02-18T07:51:22;125.90;;;116.73;;
2035;SDS011;23642;42.658;23.350;2023-02-18T07:53:50;125.63;;;116.73;;
2035;SDS011;23642;42.658;23.350;2023-02-18T07:56:16;131.07;;;120.87;;
2035;SDS011;23642;42.658;23.350;2023-02-18T07:58:43;128.57;;;119.03;;
2035;SDS011;23642;42.658;23.350;2023-02-18T08:01:10;130.50;;;121.10;;
2035;SDS011;23642;42.658;23.350;2023-02-18T08:03:39;130.30;;;120.30;;
2035;SDS011;23642;42.658;23.350;2023-02-18T08:06:07;125.67;;;116.53;;
2035;SDS011;23642;42.658;23.350;2023-02-18T08:08:44;130.10;;;120.53;;
2035;SDS011;23642;42.658;23.350;2023-02-18T08:11:12;129.53;;;119.90;;
2035;SDS011;23642;42.658;23.350;2023-02-18T08:13:39;128.90;;;119.70;;
2035;SDS011;23642;42.658;23.350;2023-02-18T08:16:05;130.27;;;120.83;;
2035;SDS011;23642;42.658;23.350;2023-02-18T08:18:32;132.60;;;122.53;;
2035;SDS011;23642;42.658;23.350;2023-02-18T08:20:59;132.63;;;122.80;;
2035;SDS011;23642;42.658;23.350;2023-02-18T08:23:26;127.23;;;117.70;;
2035;SDS011;23642;42.658;23.350;2023-02-18T08:25:53;131.40;;;121.87;;
2035;SDS011;23642;42.658;23.350;2023-02-18T08:28:22;130.07;;;120.80;;
2035;SDS011;23642;42.658;23.350;2023-02-18T08:30:50;130.97;;;121.27;;
2035;SDS011;23642;42.658;23.350;2023-02-18T08:33:18;133.07;;;123.10;;
2035;SDS011;23642;42.658;23.350;2023-02-18T08:35:46;131.23;;;121.20;;
2035;SDS011;23642;42.658;23.350;2023-02-18T08:38:15;127.40;;;118.10;;
2035;SDS011;23642;42.658;23.350;2023-02-18T08:40:42;129.17;;;119.37;;
2035;SDS011;23642;42.658;23.350;2023-02-18T08:43:09;130.50;;;121.07;;
2035;SDS011;23642;42.658;23.350;2023-02-18T08:45:37;130.93;;;121.33;;
2035;SDS011;23642;42.658;23.350;2023-02-18T08:48:04;130.63;;;120.97;;
2035;SDS011;23642;42.658;23.350;2023-02-18T08:50:31;130.50;;;120.87;;
2035;SDS011;23642;42.658;23.350;2023-02-18T08:52:58;128.77;;;119.43;;
2035;SDS011;23642;42.658;23.350;2023-02-18T08:55:27;130.87;;;121.27;;
2035;SDS011;23642;42.658;23.350;2023-02-18T08:57:54;131.47;;;121.97;;
2035;SDS011;23642;42.658;23.350;2023-02-18T09:00:21;133.37;;;123.30;;
2035;SDS011;23642;42.658;23.350;2023-02-18T09:02:49;128.90;;;119.30;;
2035;SDS011;23642;42.658;23.350;2023-02-18T09:05:16;130.90;;;121.70;;
2035;SDS011;23642;42.658;23.350;2023-02-18T09:07:43;131.77;;;122.10;;
2035;SDS011;23642;42.658;23.350;2023-02-18T09:10:09;129.10;;;119.70;;
2035;SDS011;23642;42.658;23.350;2023-02-18T09:12:36;129.83;;;120.10;;
2035;SDS011;23642;42.658;23.350;2023-02-18T09:15:03;129.97;;;120.17;;
2035;SDS011;23642;42.658;23.350;2023-02-18T09:17:30;135.07;;;125.23;;
2035;SDS011;23642;42.658;23.350;2023-02-18T09:19:58;130.30;;;120.67;;
2035;SDS011;23642;42.658;23.350;2023-02-18T09:22:25;131.87;;;121.97;;
2035;SDS011;23642;42.658;23.350;2023-02-18T09:24:52;133.13;;;123.20;;
2035;SDS011;23642;42.658;23.350;2023-02-18T09:27:19;134.60;;;124.17;;
2035;SDS011;23642;42.658;23.350;2023-02-18T09:29:46;133.70;;;123.53;;
2035;SDS011;23642;42.658;23.350;2023-02-18T09:32:13;132.90;;;122.23;;
2035;SDS011;23642;42.658;23.350;2023-02-18T09:34:40;133.03;;;123.00;;
2035;SDS011;23642;42.658;23.350;2023-02-18T09:37:08;131.90;;;121.10;;
2035;SDS011;23642;42.658;23.350;2023-02-18T09:39:35;130.23;;;120.63;;
2035;SDS011;23642;42.658;23.350;2023-02-18T09:42:03;129.93;;;120.83;;
2035;SDS011;23642;42.658;23.350;2023-02-18T09:44:32;128.50;;;118.67;;
2035;SDS011;23642;42.658;23.350;2023-02-18T09:47:04;131.23;;;121.73;;
2035;SDS011;23642;42.658;23.350;2023-02-18T09:49:37;133.43;;;123.20;;
2035;SDS011;23642;42.658;23.350;2023-02-18T09:52:10;131.80;;;121.77;;
2035;SDS011;23642;42.658;23.350;2023-02-18T09:54:41;129.93;;;119.90;;
2035;SDS011;23642;42.658;23.350;2023-02-18T09:57:13;129.03;;;118.80;;
2035;SDS011;23642;42.658;23.350;2023-02-18T09:59:48;129.10;;;119.80;;
2035;SDS011;23642;42.658;23.350;2023-02-18T10:02:20;130.80;;;121.40;;
2035;SDS011;23642;42.658;23.350;2023-02-18T10:04:48;131.17;;;121.57;;
2035;SDS011;23642;42.658;23.350;2023-02-18T10:07:20;128.40;;;119.23;;
2035;SDS011;23642;42.658;23.350;2023-02-18T10:09:51;129.87;;;120.43;;
2035;SDS011;23642;42.658;23.350;2023-02-18T10:12:23;132.93;;;122.80;;
2035;SDS011;23642;42.658;23.350;2023-02-18T10:14:51;130.33;;;120.13;;
2035;SDS011;23642;42.658;23.350;2023-02-18T10:17:20;128.50;;;119.30;;
2035;SDS011;23642;42.658;23.350;2023-02-18T10:19:50;127.43;;;118.00;;
2035;SDS011;23642;42.658;23.350;2023-02-18T10:22:20;127.33;;;117.77;;
2035;SDS011;23642;42.658;23.350;2023-02-18T10:24:50;132.27;;;122.57;;
2035;SDS011;23642;42.658;23.350;2023-02-18T10:27:20;128.20;;;118.50;;
2035;SDS011;23642;42.658;23.350;2023-02-18T10:29:50;131.27;;;121.07;;
2035;SDS011;23642;42.658;23.350;2023-02-18T10:32:18;129.47;;;120.03;;
2035;SDS011;23642;42.658;23.350;2023-02-18T10:34:48;127.27;;;117.87;;
2035;SDS011;23642;42.658;23.350;2023-02-18T10:37:28;127.93;;;118.87;;
2035;SDS011;23642;42.658;23.350;2023-02-18T10:40:12;130.80;;;121.03;;
2035;SDS011;23642;42.658;23.350;2023-02-18T10:42:45;132.40;;;121.67;;
2035;SDS011;23642;42.658;23.350;2023-02-18T10:45:27;126.20;;;116.83;;
2035;SDS011;23642;42.658;23.350;2023-02-18T10:48:06;124.33;;;115.03;;
2035;SDS011;23642;42.658;23.350;2023-02-18T10:50:43;128.60;;;119.43;;
2035;SDS011;23642;42.658;23.350;2023-02-18T10:53:13;126.13;;;117.30;;
2035;SDS011;23642;42.658;23.350;2023-02-18T10:55:45;129.97;;;120.27;;
2035;SDS011;23642;42.658;23.350;2023-02-18T10:58:25;128.30;;;118.70;;
2035;SDS011;23642;42.658;23.350;2023-02-18T11:00:55;129.00;;;118.10;;
2035;SDS011;23642;42.658;23.350;2023-02-18T11:03:23;124.13;;;115.43;;
2035;SDS011;23642;42.658;23.350;2023-02-18T11:05:51;125.20;;;116.00;;
2035;SDS011;23642;42.658;23.350;2023-02-18T11:08:23;125.67;;;116.53;;
2035;SDS011;23642;42.658;23.350;2023-02-18T11:10:52;124.47;;;115.50;;
2035;SDS011;23642;42.658;23.350;2023-02-18T11:13:23;124.57;;;115.23;;
2035;SDS011;23642;42.658;23.350;2023-02-18T11:15:53;127.43;;;117.67;;
2035;SDS011;23642;42.658;23.350;2023-02-18T11:18:35;123.53;;;114.43;;
2035;SDS011;23642;42.658;23.350;2023-02-18T11:21:04;122.60;;;113.80;;
2035;SDS011;23642;42.658;23.350;2023-02-18T11:23:47;124.97;;;115.50;;
2035;SDS011;23642;42.658;23.350;2023-02-18T11:26:16;124.43;;;115.57;;
2035;SDS011;23642;42.658;23.350;2023-02-18T11:28:48;125.90;;;117.10;;
2035;SDS011;23642;42.658;23.350;2023-02-18T11:31:18;124.80;;;114.43;;
2035;SDS011;23642;42.658;23.350;2023-02-18T11:33:49;122.93;;;114.20;;
2035;SDS011;23642;42.658;23.350;2023-02-18T11:36:22;120.53;;;111.83;;
2035;SDS011;23642;42.658;23.350;2023-02-18T11:38:54;120.67;;;111.90;;
2035;SDS011;23642;42.658;23.350;2023-02-18T11:41:28;124.40;;;115.87;;
2035;SDS011;23642;42.658;23.350;2023-02-18T11:43:59;125.83;;;116.23;;
2035;SDS011;23642;42.658;23.350;2023-02-18T11:46:28;122.60;;;113.87;;
2035;SDS011;23642;42.658;23.350;2023-02-18T11:48:56;119.87;;;111.23;;
2035;SDS011;23642;42.658;23.350;2023-02-18T11:51:45;123.63;;;114.90;;
2035;SDS011;23642;42.658;23.350;2023-02-18T11:54:21;123.30;;;114.13;;
2035;SDS011;23642;42.658;23.350;2023-02-18T11:56:53;118.80;;;110.27;;
2035;SDS011;23642;42.658;23.350;2023-02-18T11:59:21;114.17;;;105.87;;
2035;SDS011;23642;42.658;23.350;2023-02-18T12:01:49;115.73;;;108.30;;
2035;SDS011;23642;42.658;23.350;2023-02-18T12:04:22;114.80;;;106.93;;
2035;SDS011;23642;42.658;23.350;2023-02-18T12:06:55;114.10;;;106.40;;
2035;SDS011;23642;42.658;23.350;2023-02-18T12:09:39;115.87;;;108.10;;
2035;SDS011;23642;42.658;23.350;2023-02-18T12:12:10;111.80;;;104.43;;
2035;SDS011;23642;42.658;23.350;2023-02-18T12:14:41;113.43;;;105.93;;
2035;SDS011;23642;42.658;23.350;2023-02-18T12:20:20;113.83;;;106.07;;
2035;SDS011;23642;42.658;23.350;2023-02-18T12:23:04;109.70;;;102.20;;
2035;SDS011;23642;42.658;23.350;2023-02-18T12:25:42;113.60;;;104.47;;
2035;SDS011;23642;42.658;23.350;2023-02-18T12:28:26;111.70;;;104.10;;
2035;SDS011;23642;42.658;23.350;2023-02-18T12:31:08;111.93;;;104.53;;
2035;SDS011;23642;42.658;23.350;2023-02-18T12:33:53;112.03;;;104.80;;
2035;SDS011;23642;42.658;23.350;2023-02-18T12:36:37;115.83;;;107.80;;
2035;SDS011;23642;42.658;23.350;2023-02-18T12:39:17;110.63;;;103.63;;
2035;SDS011;23642;42.658;23.350;2023-02-18T12:42:03;113.13;;;105.80;;
2035;SDS011;23642;42.658;23.350;2023-02-18T12:44:40;113.93;;;106.20;;
2035;SDS011;23642;42.658;23.350;2023-02-18T12:47:22;112.07;;;104.30;;
2035;SDS011;23642;42.658;23.350;2023-02-18T12:50:30;113.27;;;105.63;;
2035;SDS011;23642;42.658;23.350;2023-02-18T12:53:22;112.17;;;104.37;;
2035;SDS011;23642;42.658;23.350;2023-02-18T12:56:01;113.27;;;106.27;;
2035;SDS011;23642;42.658;23.350;2023-02-18T12:58:48;107.40;;;100.70;;
2035;SDS011;23642;42.658;23.350;2023-02-18T13:01:41;109.97;;;103.07;;
2035;SDS011;23642;42.658;23.350;2023-02-18T13:04:27;109.60;;;102.70;;
2035;SDS011;23642;42.658;23.350;2023-02-18T13:07:15;108.70;;;101.80;;
2035;SDS011;23642;42.658;23.350;2023-02-18T13:10:03;109.03;;;101.80;;
2035;SDS011;23642;42.658;23.350;2023-02-18T13:12:47;105.97;;;99.07;;
2035;SDS011;23642;42.658;23.350;2023-02-18T13:15:24;109.97;;;103.07;;
2035;SDS011;23642;42.658;23.350;2023-02-18T13:17:56;106.17;;;99.37;;
2035;SDS011;23642;42.658;23.350;2023-02-18T13:20:28;106.33;;;99.60;;
2035;SDS011;23642;42.658;23.350;2023-02-18T13:23:02;107.40;;;100.70;;
2035;SDS011;23642;42.658;23.350;2023-02-18T13:25:30;107.80;;;100.80;;
2035;SDS011;23642;42.658;23.350;2023-02-18T13:28:05;110.43;;;103.30;;
2035;SDS011;23642;42.658;23.350;2023-02-18T13:30:41;107.80;;;100.80;;
2035;SDS011;23642;42.658;23.350;2023-02-18T13:33:13;107.13;;;100.13;;
2035;SDS011;23642;42.658;23.350;2023-02-18T13:35:48;109.53;;;101.90;;
2035;SDS011;23642;42.658;23.350;2023-02-18T13:38:30;106.47;;;99.67;;
2035;SDS011;23642;42.658;23.350;2023-02-18T13:41:13;108.07;;;101.30;;
2035;SDS011;23642;42.658;23.350;2023-02-18T13:43:41;105.07;;;98.47;;
2035;SDS011;23642;42.658;23.350;2023-02-18T13:46:10;110.10;;;103.07;;
2035;SDS011;23642;42.658;23.350;2023-02-18T13:48:41;105.90;;;99.20;;
2035;SDS011;23642;42.658;23.350;2023-02-18T13:51:11;110.47;;;103.37;;
2035;SDS011;23642;42.658;23.350;2023-02-18T13:53:40;110.53;;;103.53;;
2035;SDS011;23642;42.658;23.350;2023-02-18T13:56:08;108.17;;;101.07;;
2035;SDS011;23642;42.658;23.350;2023-02-18T13:58:47;108.70;;;101.37;;
2035;SDS011;23642;42.658;23.350;2023-02-18T14:01:21;108.07;;;100.97;;
2035;SDS011;23642;42.658;23.350;2023-02-18T14:03:52;111.70;;;104.50;;
2035;SDS011;23642;42.658;23.350;2023-02-18T14:06:23;111.60;;;103.80;;
2035;SDS011;23642;42.658;23.350;2023-02-18T14:09:02;110.07;;;102.77;;
2035;SDS011;23642;42.658;23.350;2023-02-18T14:11:53;108.67;;;101.37;;
2035;SDS011;23642;42.658;23.350;2023-02-18T14:17:22;111.40;;;103.97;;
2035;SDS011;23642;42.658;23.350;2023-02-18T14:22:58;109.07;;;101.70;;
2035;SDS011;23642;42.658;23.350;2023-02-18T14:25:32;109.97;;;102.67;;
2035;SDS011;23642;42.658;23.350;2023-02-18T14:28:02;108.00;;;100.93;;
2035;SDS011;23642;42.658;23.350;2023-02-18T14:30:49;108.13;;;100.43;;
2035;SDS011;23642;42.658;23.350;2023-02-18T14:33:18;107.37;;;100.10;;
2035;SDS011;23642;42.658;23.350;2023-02-18T14:35:47;113.13;;;105.90;;
2035;SDS011;23642;42.658;23.350;2023-02-18T14:38:29;110.37;;;103.17;;
2035;SDS011;23642;42.658;23.350;2023-02-18T14:41:10;109.13;;;101.90;;